Time;durP1;ratioP1;P1;durP2;ratioP2;P2;SDS_P1;SDS_P2;PMS_P1;PMS_P2;Temp;Humidity;BMP_temperature;BMP_pressure;BME280_temperature;BME280_humidity;BME280_pressure;Samples;Min_cycle;Max_cycle;Signal;HPM_P1;HPM_P2
2023/08/25 00:00:44;;;;;;;10.23;9.13;;;;;;;18.11;100.00;100868.28;4981878;28;20785;-70
2023/08/25 00:03:10;;;;;;;10.32;9.23;;;;;;;18.11;100.00;100867.44;5000218;28;20152;-70
2023/08/25 00:05:39;;;;;;;11.25;10.13;;;;;;;18.17;100.00;100868.06;5013403;28;20163;-70
2023/08/25 00:08:05;;;;;;;11.02;9.52;;;;;;;18.12;100.00;100869.19;4982776;28;20034;-70
2023/08/25 00:10:34;;;;;;;12.50;10.30;;;;;;;18.02;100.00;100879.31;4975262;28;20063;-70
2023/08/25 00:12:59;;;;;;;10.60;8.95;;;;;;;18.10;100.00;100881.63;5026972;28;20397;-70
2023/08/25 00:15:25;;;;;;;10.88;8.65;;;;;;;18.05;100.00;100884.47;5004516;28;20044;-69
2023/08/25 00:17:53;;;;;;;9.75;8.85;;;;;;;17.99;100.00;100880.28;4972464;28;20120;-69
2023/08/25 00:20:19;;;;;;;10.80;9.80;;;;;;;18.12;100.00;100885.94;5018696;28;20141;-69
2023/08/25 00:22:44;;;;;;;11.57;10.48;;;;;;;18.18;100.00;100874.22;4982639;28;20468;-69
2023/08/25 00:25:10;;;;;;;9.18;8.15;;;;;;;18.09;100.00;100880.78;5002192;28;20029;-70
2023/08/25 00:27:35;;;;;;;9.07;8.18;;;;;;;18.14;100.00;100877.91;5028728;28;20059;-69
2023/08/25 00:30:01;;;;;;;9.35;7.82;;;;;;;18.04;100.00;100881.88;5009400;28;20032;-69
2023/08/25 00:32:26;;;;;;;10.40;8.93;;;;;;;18.05;100.00;100895.09;4980036;28;20033;-69
2023/08/25 00:34:52;;;;;;;134.73;15.85;;;;;;;17.80;100.00;100884.59;4995352;28;20026;-69
2023/08/25 00:37:18;;;;;;;12.43;11.23;;;;;;;17.98;100.00;100890.97;4998426;28;20036;-69
2023/08/25 00:39:45;;;;;;;8.75;7.85;;;;;;;17.91;100.00;100895.66;4985682;28;20030;-69
2023/08/25 00:42:10;;;;;;;11.18;9.48;;;;;;;17.88;100.00;100895.75;5010995;28;20022;-69
2023/08/25 00:44:35;;;;;;;15.43;9.70;;;;;;;17.81;100.00;100892.50;4980122;28;20034;-69
2023/08/25 00:47:01;;;;;;;18.70;9.50;;;;;;;17.73;100.00;100897.25;5001760;28;20472;-69
2023/08/25 00:49:27;;;;;;;10.13;7.30;;;;;;;17.73;100.00;100893.72;4981179;28;20045;-69
2023/08/25 00:51:53;;;;;;;10.30;9.23;;;;;;;17.66;100.00;100893.13;5002289;28;20424;-69
2023/08/25 00:54:21;;;;;;;116.72;13.45;;;;;;;17.60;100.00;100894.25;5007453;28;20053;-69
2023/08/25 00:56:49;;;;;;;124.40;14.50;;;;;;;17.58;100.00;100885.47;4991759;28;20465;-69
2023/08/25 00:59:16;;;;;;;127.03;15.48;;;;;;;17.55;100.00;100890.03;4976386;28;20041;-69
2023/08/25 01:01:41;;;;;;;22.00;7.78;;;;;;;17.45;100.00;100882.44;5024081;28;20393;-69
2023/08/25 01:04:07;;;;;;;8.02;7.22;;;;;;;17.48;100.00;100879.69;4956964;28;20141;-69
2023/08/25 01:06:33;;;;;;;7.03;6.43;;;;;;;17.42;100.00;100879.94;4967638;28;20037;-69
2023/08/25 01:08:59;;;;;;;7.78;7.07;;;;;;;17.36;100.00;100881.97;5009534;28;20397;-69
2023/08/25 01:11:51;;;;;;;11.02;8.45;;;;;;;17.44;100.00;100883.41;4981743;28;20397;-69
2023/08/25 01:14:33;;;;;;;19.73;11.88;;;;;;;17.43;100.00;100879.00;5012727;28;20040;-69
2023/08/25 01:17:05;;;;;;;59.60;12.23;;;;;;;17.31;100.00;100875.06;4996233;28;20026;-69
2023/08/25 01:19:42;;;;;;;31.23;12.73;;;;;;;17.30;100.00;100881.28;5000469;28;20041;-69
2023/08/25 01:22:21;;;;;;;16.80;10.20;;;;;;;17.33;100.00;100879.44;5009287;28;20033;-69
2023/08/25 01:24:52;;;;;;;9.10;8.13;;;;;;;17.29;100.00;100868.94;5014189;28;20034;-69
2023/08/25 01:27:18;;;;;;;115.93;14.65;;;;;;;17.13;100.00;100867.84;5001104;28;20755;-69
2023/08/25 01:29:44;;;;;;;298.25;25.35;;;;;;;17.06;100.00;100856.63;5006206;28;20381;-69
2023/08/25 01:32:09;;;;;;;67.28;13.23;;;;;;;17.18;100.00;100865.00;4987980;28;20033;-69
2023/08/25 01:34:36;;;;;;;16.00;10.50;;;;;;;17.10;100.00;100870.59;4994674;28;20121;-69
2023/08/25 01:37:22;;;;;;;13.93;9.55;;;;;;;17.16;100.00;100870.38;4968353;28;20033;-69
2023/08/25 01:39:51;;;;;;;28.20;10.57;;;;;;;17.14;100.00;100870.44;5022400;28;20038;-69
2023/08/25 01:42:17;;;;;;;18.52;10.02;;;;;;;17.10;100.00;100868.81;5014711;28;20030;-69
2023/08/25 01:44:44;;;;;;;11.25;9.68;;;;;;;17.10;100.00;100865.31;4983264;28;20030;-69
2023/08/25 01:47:10;;;;;;;69.97;12.82;;;;;;;17.08;100.00;100859.19;4993601;28;20477;-69
2023/08/25 01:49:38;;;;;;;17.83;10.65;;;;;;;17.25;100.00;100862.03;4978336;28;20030;-70
2023/08/25 01:52:04;;;;;;;8.43;7.72;;;;;;;17.15;100.00;100863.34;4986323;28;20029;-70
2023/08/25 01:54:30;;;;;;;13.98;7.82;;;;;;;17.17;100.00;100855.31;5000415;28;20037;-70
2023/08/25 01:56:55;;;;;;;12.25;7.38;;;;;;;17.20;100.00;100852.59;4978559;28;20498;-70
2023/08/25 01:59:21;;;;;;;45.22;5.50;;;;;;;17.14;100.00;100861.63;4995604;28;20073;-70
2023/08/25 02:01:46;;;;;;;57.97;6.38;;;;;;;17.06;100.00;100848.66;5014296;28;20025;-70
2023/08/25 02:04:12;;;;;;;4.65;4.25;;;;;;;17.16;100.00;100851.84;5009796;28;20136;-69
2023/08/25 02:06:37;;;;;;;12.85;6.07;;;;;;;17.14;100.00;100849.25;4960418;28;20022;-70
2023/08/25 02:09:03;;;;;;;9.68;7.38;;;;;;;17.16;100.00;100849.19;4977897;28;20174;-70
2023/08/25 02:11:28;;;;;;;10.18;5.65;;;;;;;17.19;100.00;100845.56;5011171;28;20118;-69
2023/08/25 02:13:54;;;;;;;11.88;6.47;;;;;;;17.22;100.00;100843.63;4967017;28;20462;-69
2023/08/25 02:16:20;;;;;;;48.28;8.48;;;;;;;17.12;100.00;100844.94;4992656;28;20034;-70
2023/08/25 02:18:46;;;;;;;40.65;8.98;;;;;;;17.14;100.00;100840.44;4979345;28;20144;-70
2023/08/25 02:21:11;;;;;;;18.45;8.88;;;;;;;17.14;100.00;100837.81;5004276;28;20031;-70
2023/08/25 02:23:37;;;;;;;11.32;9.75;;;;;;;17.10;100.00;100837.03;4969990;28;20118;-70
2023/08/25 02:26:02;;;;;;;11.63;9.95;;;;;;;17.16;100.00;100829.78;4960344;28;20031;-70
2023/08/25 02:28:28;;;;;;;10.75;8.95;;;;;;;17.17;100.00;100831.50;4969401;28;20026;-70
2023/08/25 02:30:53;;;;;;;15.30;9.98;;;;;;;17.21;100.00;100828.69;4984554;28;20034;-70
2023/08/25 02:33:19;;;;;;;12.77;11.50;;;;;;;17.25;100.00;100824.13;4960745;28;20386;-70
2023/08/25 02:36:03;;;;;;;12.70;11.43;;;;;;;17.33;100.00;100831.78;4975613;28;20044;-70
2023/08/25 02:38:29;;;;;;;12.50;11.30;;;;;;;17.26;100.00;100821.41;4977604;28;20188;-70
2023/08/25 02:40:54;;;;;;;13.13;11.90;;;;;;;17.23;100.00;100820.69;4967446;28;20034;-70
2023/08/25 02:43:20;;;;;;;17.10;15.23;;;;;;;17.24;100.00;100817.97;4955810;28;20041;-70
2023/08/25 02:45:46;;;;;;;13.15;12.05;;;;;;;17.25;100.00;100809.09;4975059;28;20030;-70
2023/08/25 02:48:12;;;;;;;13.40;12.20;;;;;;;17.30;100.00;100807.13;4992312;28;20022;-70
2023/08/25 02:50:37;;;;;;;13.85;12.65;;;;;;;17.28;100.00;100806.34;4976693;28;20039;-70
2023/08/25 02:53:03;;;;;;;15.02;13.68;;;;;;;17.35;100.00;100806.09;4989549;28;20038;-70
2023/08/25 02:55:29;;;;;;;15.35;13.98;;;;;;;17.30;100.00;100799.19;4975211;28;20065;-70
2023/08/25 02:57:55;;;;;;;14.98;13.68;;;;;;;17.35;100.00;100803.44;4977165;28;20030;-70
2023/08/25 03:00:23;;;;;;;14.48;13.18;;;;;;;17.31;100.00;100798.25;4963406;28;20040;-70
2023/08/25 03:02:49;;;;;;;15.77;13.50;;;;;;;17.34;100.00;100793.75;4991280;28;20493;-70
2023/08/25 03:05:14;;;;;;;15.43;12.77;;;;;;;17.34;100.00;100786.69;4998096;28;20057;-70
2023/08/25 03:07:40;;;;;;;18.23;16.42;;;;;;;17.29;100.00;100794.78;5007601;28;20036;-71
2023/08/25 03:10:08;;;;;;;19.70;17.88;;;;;;;17.37;100.00;100788.31;5024145;28;20025;-70
2023/08/25 03:12:34;;;;;;;22.70;20.48;;;;;;;17.39;100.00;100783.84;5006717;28;20248;-70
2023/08/25 03:14:59;;;;;;;19.73;17.95;;;;;;;17.42;100.00;100778.41;5023255;28;20051;-70
2023/08/25 03:17:26;;;;;;;21.38;19.48;;;;;;;17.48;100.00;100784.34;5000324;28;20034;-70
2023/08/25 03:19:54;;;;;;;22.88;20.70;;;;;;;17.49;100.00;100777.22;5019591;28;20331;-70
2023/08/25 03:22:19;;;;;;;23.38;20.98;;;;;;;17.63;100.00;100774.03;5030820;28;20030;-70
2023/08/25 03:24:45;;;;;;;21.10;18.55;;;;;;;17.65;100.00;100770.34;5006066;28;20059;-70
2023/08/25 03:27:10;;;;;;;21.95;18.80;;;;;;;17.67;100.00;100768.50;5001628;28;20022;-70
2023/08/25 03:29:36;;;;;;;23.27;20.73;;;;;;;17.73;100.00;100762.09;4996374;28;20041;-70
2023/08/25 03:32:02;;;;;;;29.30;26.40;;;;;;;17.78;100.00;100756.59;4994651;28;20049;-70
2023/08/25 03:34:29;;;;;;;34.17;30.60;;;;;;;17.83;100.00;100754.63;4966558;28;20115;-70
2023/08/25 03:36:54;;;;;;;37.60;33.65;;;;;;;17.92;100.00;100748.94;4976853;28;20374;-70
2023/08/25 03:39:20;;;;;;;38.13;34.05;;;;;;;17.92;100.00;100746.28;5004563;28;20037;-70
2023/08/25 03:41:45;;;;;;;36.33;32.63;;;;;;;17.97;100.00;100751.38;4991730;28;20090;-70
2023/08/25 03:47:06;;;;;;;32.63;29.40;;;;;;;17.99;100.00;100737.13;4312281;22;20055;-70
2023/08/25 03:55:23;;;;;;;34.17;30.65;;;;;;;17.90;100.00;100740.19;3430247;23;21149;-70
2023/08/25 05:16:47;;;;;;;28.77;25.90;;;;;;;17.79;100.00;100713.25;4850554;23;1458591;-69
2023/08/25 05:19:13;;;;;;;30.73;27.38;;;;;;;17.80;100.00;100707.00;4920323;28;20035;-69
2023/08/25 05:21:40;;;;;;;28.48;25.42;;;;;;;17.89;100.00;100711.06;4926864;28;20106;-70
2023/08/25 05:24:15;;;;;;;41.53;29.50;;;;;;;17.90;100.00;100699.53;4917368;28;20034;-70
2023/08/25 05:26:41;;;;;;;35.40;28.58;;;;;;;17.89;100.00;100697.81;4940602;29;20439;-71
2023/08/25 05:29:06;;;;;;;129.13;33.35;;;;;;;17.78;100.00;100711.53;4939990;28;20145;-70
2023/08/25 05:31:32;;;;;;;64.60;31.90;;;;;;;17.73;100.00;100701.13;4936365;29;20480;-71
2023/08/25 05:33:57;;;;;;;86.72;34.00;;;;;;;17.73;100.00;100701.13;4941870;28;20486;-70
2023/08/25 05:36:23;;;;;;;116.95;35.20;;;;;;;17.70;100.00;100718.94;4920115;29;20083;-71
2023/08/25 05:38:48;;;;;;;59.53;32.80;;;;;;;17.66;100.00;100713.78;4939451;29;20035;-71
2023/08/25 05:41:14;;;;;;;60.40;32.90;;;;;;;17.69;100.00;100702.19;4935042;28;20447;-71
2023/08/25 05:43:39;;;;;;;82.47;33.55;;;;;;;17.62;100.00;100701.59;4932109;28;20031;-71
2023/08/25 05:46:05;;;;;;;64.53;31.60;;;;;;;17.54;100.00;100697.56;4919595;29;20107;-71
2023/08/25 05:48:30;;;;;;;72.70;31.63;;;;;;;17.45;100.00;100707.63;4955198;28;20549;-72
2023/08/25 05:50:55;;;;;;;90.32;33.42;;;;;;;17.37;100.00;100693.84;4920856;29;20495;-71
2023/08/25 05:53:23;;;;;;;74.05;33.25;;;;;;;17.44;100.00;100705.03;4919929;29;20039;-71
2023/08/25 05:55:50;;;;;;;66.10;33.22;;;;;;;17.48;100.00;100704.88;4930426;29;20502;-70
2023/08/25 05:58:15;;;;;;;76.63;35.28;;;;;;;17.54;100.00;100685.19;4939118;28;20030;-70
2023/08/25 06:00:52;;;;;;;43.33;31.52;;;;;;;17.70;100.00;100685.38;4949624;29;20047;-71
2023/08/25 06:03:18;;;;;;;39.63;32.58;;;;;;;17.78;100.00;100683.22;4946249;28;20050;-70
2023/08/25 06:05:46;;;;;;;36.65;31.60;;;;;;;17.84;100.00;100690.94;4954706;28;20034;-70
2023/08/25 06:08:12;;;;;;;36.20;32.30;;;;;;;17.71;100.00;100708.28;4921928;29;20074;-72
2023/08/25 06:10:38;;;;;;;37.30;33.47;;;;;;;17.79;100.00;100697.38;4924560;29;20027;-70
2023/08/25 06:13:03;;;;;;;34.05;30.65;;;;;;;17.71;100.00;100688.88;4937152;29;20066;-71
2023/08/25 06:15:29;;;;;;;33.80;30.50;;;;;;;17.76;100.00;100692.19;4939595;29;20031;-69
2023/08/25 06:17:54;;;;;;;35.42;31.88;;;;;;;17.72;100.00;100695.91;4912718;28;20051;-69
2023/08/25 06:20:21;;;;;;;33.35;30.27;;;;;;;17.72;100.00;100691.47;4924778;28;20026;-69
2023/08/25 06:22:49;;;;;;;32.00;29.10;;;;;;;17.77;100.00;100696.56;4906359;29;20034;-71
2023/08/25 06:25:14;;;;;;;35.17;31.75;;;;;;;17.70;100.00;100697.75;4939356;29;20035;-69
2023/08/25 06:27:40;;;;;;;32.95;29.75;;;;;;;17.70;100.00;100719.84;4924639;28;20041;-69
2023/08/25 06:30:06;;;;;;;35.03;31.73;;;;;;;17.69;100.00;100727.84;4919492;28;20026;-69
2023/08/25 06:32:31;;;;;;;36.47;32.83;;;;;;;17.62;100.00;100725.44;4926723;28;20069;-70
2023/08/25 06:34:57;;;;;;;36.65;33.15;;;;;;;17.63;100.00;100739.56;4933872;29;20058;-69
2023/08/25 06:37:36;;;;;;;34.47;31.10;;;;;;;17.71;100.00;100725.97;4897017;29;20427;-69
2023/08/25 06:40:05;;;;;;;35.17;31.75;;;;;;;17.75;100.00;100730.22;4916923;28;20054;-70
2023/08/25 06:42:40;;;;;;;34.25;31.25;;;;;;;17.81;100.00;100701.66;4905755;29;20115;-71
2023/08/25 06:45:08;;;;;;;34.47;31.27;;;;;;;17.84;100.00;100692.69;4950479;28;20027;-71
2023/08/25 06:47:40;;;;;;;35.63;32.25;;;;;;;17.86;100.00;100696.16;4951362;28;20037;-70
2023/08/25 06:50:17;;;;;;;33.60;30.20;;;;;;;17.89;100.00;100692.53;4954495;29;20031;-71
2023/08/25 06:52:42;;;;;;;34.60;30.98;;;;;;;17.94;100.00;100688.78;4932728;29;20044;-68
2023/08/25 06:55:08;;;;;;;33.63;30.27;;;;;;;17.91;100.00;100701.28;4933138;29;20398;-69
2023/08/25 06:57:34;;;;;;;34.22;30.73;;;;;;;17.93;100.00;100702.94;4910628;28;20387;-68
2023/08/25 07:00:00;;;;;;;32.75;29.65;;;;;;;17.96;100.00;100696.66;4917900;29;20547;-68
2023/08/25 07:02:26;;;;;;;33.33;30.10;;;;;;;17.98;100.00;100695.63;4909663;29;20122;-68
2023/08/25 07:04:52;;;;;;;33.00;30.00;;;;;;;17.98;100.00;100689.47;4932384;28;20039;-68
2023/08/25 07:07:25;;;;;;;32.78;29.38;;;;;;;18.04;100.00;100683.03;4937368;29;20039;-68
2023/08/25 07:09:51;;;;;;;33.30;29.92;;;;;;;18.03;100.00;100642.41;4920840;29;20464;-68
2023/08/25 07:12:16;;;;;;;33.50;30.33;;;;;;;18.03;100.00;100631.81;4934809;29;20128;-70
2023/08/25 07:14:43;;;;;;;32.72;29.42;;;;;;;17.99;100.00;100630.22;4925120;28;20074;-70
2023/08/25 07:17:08;;;;;;;34.45;31.10;;;;;;;17.97;100.00;100640.91;4914031;28;20063;-69
2023/08/25 07:19:34;;;;;;;33.55;30.10;;;;;;;17.97;100.00;100643.56;4953233;28;20126;-70
2023/08/25 07:22:00;;;;;;;33.08;29.90;;;;;;;17.97;100.00;100647.97;4915927;29;20039;-69
2023/08/25 07:24:25;;;;;;;32.30;29.17;;;;;;;17.98;100.00;100660.31;4925846;28;20026;-70
2023/08/25 07:26:50;;;;;;;32.53;29.05;;;;;;;17.99;100.00;100640.84;4929196;29;20447;-70
2023/08/25 07:29:17;;;;;;;33.65;30.27;;;;;;;17.99;100.00;100636.38;4947081;28;20031;-70
2023/08/25 07:31:43;;;;;;;32.85;29.85;;;;;;;18.02;100.00;100661.91;4909486;29;20093;-69
2023/08/25 07:34:08;;;;;;;34.28;30.38;;;;;;;18.00;100.00;100683.19;4942824;28;20125;-69
2023/08/25 07:36:33;;;;;;;31.90;28.55;;;;;;;18.04;100.00;100691.00;4914347;29;20048;-69
2023/08/25 07:38:59;;;;;;;34.55;30.77;;;;;;;18.06;100.00;100689.13;4955413;28;20435;-69
2023/08/25 07:41:24;;;;;;;31.73;28.63;;;;;;;18.08;100.00;100722.59;4915019;29;20035;-69
2023/08/25 07:43:50;;;;;;;32.67;29.52;;;;;;;18.09;100.00;100747.34;4943972;29;20089;-70
2023/08/25 07:46:15;;;;;;;32.50;29.30;;;;;;;18.04;100.00;100739.56;4905066;29;20495;-70
2023/08/25 07:48:41;;;;;;;34.13;30.65;;;;;;;18.04;100.00;100712.19;4920372;28;20199;-70
2023/08/25 07:51:06;;;;;;;32.03;28.85;;;;;;;17.98;100.00;100714.19;4936408;29;20027;-71
2023/08/25 07:53:31;;;;;;;33.75;30.50;;;;;;;17.93;100.00;100725.91;4924394;28;20019;-72
2023/08/25 07:55:58;;;;;;;35.22;31.67;;;;;;;17.81;100.00;100727.28;4936371;29;20027;-70
2023/08/25 07:58:24;;;;;;;37.60;33.83;;;;;;;17.72;100.00;100723.25;4929535;29;20603;-71
2023/08/25 08:00:50;;;;;;;37.40;33.42;;;;;;;17.72;100.00;100717.97;4936572;29;20027;-71
2023/08/25 08:03:15;;;;;;;37.42;33.83;;;;;;;17.69;100.00;100717.25;4958316;28;20380;-72
2023/08/25 08:05:42;;;;;;;35.53;32.03;;;;;;;17.69;100.00;100696.06;4943516;29;20038;-71
2023/08/25 08:08:09;;;;;;;33.00;30.00;;;;;;;17.67;100.00;100712.03;4937779;29;20450;-71
2023/08/25 08:10:35;;;;;;;30.70;27.60;;;;;;;17.72;100.00;100722.41;4937464;29;20095;-71
2023/08/25 08:13:02;;;;;;;32.58;29.52;;;;;;;17.74;100.00;100728.50;4896738;29;20501;-71
2023/08/25 08:15:27;;;;;;;27.80;25.05;;;;;;;17.76;100.00;100743.41;4909435;29;20471;-70
2023/08/25 08:17:53;;;;;;;26.60;24.10;;;;;;;17.73;100.00;100746.19;4907394;28;20070;-71
2023/08/25 08:20:18;;;;;;;23.42;21.27;;;;;;;17.86;100.00;100751.81;4926610;29;20035;-70
2023/08/25 08:22:45;;;;;;;25.60;23.33;;;;;;;17.95;100.00;100759.41;4926314;29;20031;-70
2023/08/25 08:25:11;;;;;;;20.77;18.98;;;;;;;17.89;100.00;100746.38;4929968;28;20129;-70
2023/08/25 08:27:37;;;;;;;19.60;17.70;;;;;;;17.83;100.00;100730.75;4917176;29;20070;-71
2023/08/25 08:30:04;;;;;;;18.50;16.80;;;;;;;17.88;100.00;100707.53;4931579;28;20081;-71
2023/08/25 08:32:29;;;;;;;19.38;17.48;;;;;;;17.80;100.00;100699.06;4940038;28;20026;-71
2023/08/25 08:34:55;;;;;;;19.75;18.05;;;;;;;17.90;100.00;100699.53;4940300;29;20534;-71
2023/08/25 08:37:21;;;;;;;16.85;15.43;;;;;;;17.81;100.00;100714.03;4933361;28;20046;-71
2023/08/25 08:39:47;;;;;;;17.55;15.95;;;;;;;17.80;100.00;100722.91;4952884;28;20035;-71
2023/08/25 08:42:13;;;;;;;18.02;16.52;;;;;;;17.80;100.00;100713.19;4920308;29;20102;-71
2023/08/25 08:44:46;;;;;;;18.27;16.67;;;;;;;17.73;100.00;100718.81;4935508;29;20122;-71
2023/08/25 08:47:11;;;;;;;17.98;16.38;;;;;;;17.76;100.00;100734.59;4934278;29;20078;-70
2023/08/25 08:49:38;;;;;;;18.65;16.95;;;;;;;17.76;100.00;100746.06;4925256;29;20490;-71
2023/08/25 08:52:06;;;;;;;17.20;15.80;;;;;;;17.64;100.00;100739.50;4924495;29;20032;-70
2023/08/25 08:54:32;;;;;;;17.45;16.05;;;;;;;17.63;100.00;100745.72;4927076;29;20042;-69
2023/08/25 08:56:59;;;;;;;17.98;16.38;;;;;;;17.63;100.00;100729.81;4917451;29;20126;-69
2023/08/25 08:59:25;;;;;;;18.73;16.85;;;;;;;17.60;100.00;100731.75;4919213;29;20042;-69
2023/08/25 09:01:53;;;;;;;20.35;18.23;;;;;;;17.57;100.00;100739.81;4912622;28;20023;-69
2023/08/25 09:04:21;;;;;;;20.23;18.42;;;;;;;17.54;100.00;100738.19;4955732;28;20034;-69
2023/08/25 09:06:51;;;;;;;20.75;18.85;;;;;;;17.51;100.00;100748.88;4918043;28;20103;-69
2023/08/25 09:09:19;;;;;;;20.23;18.42;;;;;;;17.54;100.00;100751.44;4932088;29;20483;-69
2023/08/25 09:11:48;;;;;;;20.98;19.17;;;;;;;17.50;100.00;100757.78;4936354;29;20070;-69
2023/08/25 09:14:29;;;;;;;22.73;20.73;;;;;;;17.51;100.00;100746.22;4930584;29;20031;-69
2023/08/25 09:16:56;;;;;;;21.23;19.17;;;;;;;17.49;100.00;100730.41;4950915;28;20065;-69
2023/08/25 09:19:22;;;;;;;20.25;18.42;;;;;;;17.46;100.00;100719.09;4934807;29;20086;-69
2023/08/25 09:21:47;;;;;;;21.13;19.33;;;;;;;17.43;100.00;100712.13;4916821;29;20039;-69
2023/08/25 09:24:22;;;;;;;20.40;18.50;;;;;;;17.49;100.00;100711.00;4903018;29;20027;-69
2023/08/25 09:26:48;;;;;;;21.75;19.58;;;;;;;17.48;100.00;100733.13;4928054;28;20031;-69
2023/08/25 09:29:15;;;;;;;22.10;20.02;;;;;;;17.52;100.00;100737.38;4919423;29;20125;-69
2023/08/25 09:31:41;;;;;;;20.38;18.40;;;;;;;17.57;100.00;100694.78;4922958;28;20038;-69
2023/08/25 09:34:09;;;;;;;21.70;19.80;;;;;;;17.65;100.00;100680.25;4927142;29;20494;-68
2023/08/25 09:36:53;;;;;;;21.92;20.02;;;;;;;17.73;100.00;100681.72;4938322;29;20034;-69
2023/08/25 09:39:19;;;;;;;21.83;19.92;;;;;;;17.83;100.00;100683.91;4939190;28;20119;-69
2023/08/25 09:41:46;;;;;;;22.45;20.42;;;;;;;17.84;100.00;100693.59;4920719;29;20094;-69
2023/08/25 09:44:12;;;;;;;20.27;18.52;;;;;;;17.81;100.00;100700.78;4913181;29;20037;-69
2023/08/25 09:46:37;;;;;;;20.05;18.42;;;;;;;17.94;100.00;100702.03;4923744;29;20121;-69
2023/08/25 09:49:09;;;;;;;20.83;19.13;;;;;;;17.98;100.00;100703.56;4933165;29;20082;-69
2023/08/25 09:51:43;;;;;;;19.70;18.00;;;;;;;17.89;100.00;100709.28;4952632;28;20073;-69
2023/08/25 09:54:17;;;;;;;18.35;16.85;;;;;;;17.88;100.00;100704.88;4948016;28;20458;-70
2023/08/25 09:56:47;;;;;;;18.55;16.85;;;;;;;17.96;100.00;100718.72;4946962;28;20050;-69
2023/08/25 09:59:14;;;;;;;19.75;18.05;;;;;;;18.00;100.00;100719.41;4949578;28;20034;-69
2023/08/25 10:01:43;;;;;;;18.70;17.20;;;;;;;18.07;100.00;100712.06;4938365;29;20020;-69
2023/08/25 10:04:09;;;;;;;18.58;17.08;;;;;;;18.17;100.00;100708.06;4937414;29;20146;-70
2023/08/25 10:06:39;;;;;;;18.98;17.38;;;;;;;18.14;100.00;100716.16;4938849;29;20534;-70
2023/08/25 10:09:06;;;;;;;18.75;17.27;;;;;;;18.28;100.00;100719.03;4938706;29;20047;-70
2023/08/25 10:11:43;;;;;;;19.02;17.42;;;;;;;18.29;100.00;100728.72;4913366;28;20031;-70
2023/08/25 10:14:11;;;;;;;19.17;17.48;;;;;;;18.44;100.00;100731.59;4922445;29;20069;-70
2023/08/25 10:16:59;;;;;;;18.70;17.05;;;;;;;18.59;100.00;100730.88;4953297;28;20094;-70
2023/08/25 10:19:28;;;;;;;17.25;15.73;;;;;;;18.49;100.00;100729.59;4947325;28;20045;-69
2023/08/25 10:21:55;;;;;;;17.77;16.27;;;;;;;18.46;100.00;100732.38;4935233;29;20027;-69
2023/08/25 10:24:22;;;;;;;18.63;16.98;;;;;;;18.40;100.00;100743.28;4938418;29;20031;-69
2023/08/25 10:26:50;;;;;;;19.48;17.85;;;;;;;18.57;100.00;100742.50;4921727;28;20050;-69
2023/08/25 10:29:21;;;;;;;19.27;17.58;;;;;;;18.65;100.00;100735.91;4934270;29;20039;-69
2023/08/25 10:31:53;;;;;;;19.85;18.02;;;;;;;18.71;100.00;100732.09;4916344;29;20427;-70
2023/08/25 10:34:34;;;;;;;19.58;17.98;;;;;;;18.96;100.00;100729.13;4948789;28;20387;-69
2023/08/25 10:37:10;;;;;;;17.60;16.05;;;;;;;18.78;100.00;100736.19;4956504;28;20027;-69
2023/08/25 10:40:06;;;;;;;18.55;17.05;;;;;;;18.81;100.00;100736.03;4934920;29;20034;-70
2023/08/25 10:42:33;;;;;;;19.70;18.10;;;;;;;18.87;100.00;100738.41;4938991;28;20031;-69
2023/08/25 10:45:11;;;;;;;20.70;18.77;;;;;;;18.82;100.00;100731.56;4943679;28;20022;-69
2023/08/25 10:47:46;;;;;;;21.25;19.33;;;;;;;18.78;100.00;100743.28;4940599;28;20390;-69
2023/08/25 10:50:13;;;;;;;21.17;19.40;;;;;;;18.78;100.00;100740.63;4935559;28;20031;-69
2023/08/25 10:52:46;;;;;;;21.77;19.83;;;;;;;18.72;100.00;100749.75;4930795;29;20031;-69
2023/08/25 10:55:44;;;;;;;20.85;19.15;;;;;;;18.74;100.00;100750.53;4922855;29;20035;-69
2023/08/25 10:58:17;;;;;;;20.63;18.85;;;;;;;18.61;100.00;100754.69;4942364;29;20047;-69
2023/08/25 11:00:47;;;;;;;21.42;19.58;;;;;;;18.55;100.00;100750.53;4954314;28;20054;-69
2023/08/25 11:03:13;;;;;;;21.88;19.88;;;;;;;18.54;100.00;100748.81;4898990;28;20151;-69
2023/08/25 11:05:41;;;;;;;21.30;19.45;;;;;;;18.48;100.00;100742.00;4928044;29;20399;-70
2023/08/25 11:08:28;;;;;;;22.80;20.80;;;;;;;18.42;100.00;100746.72;4911812;29;20077;-69
2023/08/25 11:11:11;;;;;;;23.70;21.67;;;;;;;18.35;100.00;100738.19;4937927;28;20027;-69
2023/08/25 11:13:39;;;;;;;23.00;21.00;;;;;;;18.32;100.00;100733.88;4940120;28;20112;-69
2023/08/25 11:16:07;;;;;;;23.23;21.23;;;;;;;18.28;100.00;100736.75;4931418;29;20131;-69
2023/08/25 11:18:32;;;;;;;24.40;22.40;;;;;;;18.33;100.00;100740.91;4952178;29;20114;-69
2023/08/25 11:21:00;;;;;;;24.08;22.08;;;;;;;18.36;100.00;100731.97;4919922;29;20027;-69
2023/08/25 11:23:41;;;;;;;23.33;21.23;;;;;;;18.35;100.00;100736.38;4947139;28;20037;-70
2023/08/25 11:26:10;;;;;;;23.17;21.17;;;;;;;18.37;100.00;100709.78;4941235;28;20095;-70
2023/08/25 11:28:37;;;;;;;22.75;20.90;;;;;;;18.46;100.00;100709.38;4939176;28;20043;-70
2023/08/25 11:31:03;;;;;;;23.65;21.73;;;;;;;18.51;100.00;100711.81;4931760;29;20043;-68
2023/08/25 11:33:30;;;;;;;22.88;20.75;;;;;;;18.55;100.00;100712.50;4901842;28;20149;-69
2023/08/25 11:35:57;;;;;;;23.85;21.65;;;;;;;18.71;100.00;100724.13;4934086;29;20043;-69
2023/08/25 11:38:23;;;;;;;22.33;20.35;;;;;;;18.73;100.00;100727.56;4922073;29;20527;-69
2023/08/25 11:40:53;;;;;;;22.13;20.15;;;;;;;18.74;100.00;100733.75;4923247;29;20055;-69
2023/08/25 11:43:18;;;;;;;21.67;19.58;;;;;;;18.76;100.00;100734.53;4932778;29;20035;-69
2023/08/25 11:45:45;;;;;;;21.65;19.52;;;;;;;18.77;100.00;100733.59;4892103;29;20459;-70
2023/08/25 11:48:12;;;;;;;22.30;20.20;;;;;;;18.82;100.00;100739.53;4932893;29;20072;-69
2023/08/25 11:50:46;;;;;;;22.90;20.70;;;;;;;18.99;100.00;100734.31;4920244;29;20126;-69
2023/08/25 11:53:12;;;;;;;21.90;20.00;;;;;;;18.92;100.00;100742.63;4939579;28;20033;-69
2023/08/25 11:55:37;;;;;;;22.92;20.83;;;;;;;18.92;100.00;100751.50;4916160;28;20121;-69
2023/08/25 11:58:07;;;;;;;23.35;21.25;;;;;;;18.92;100.00;100758.56;4899647;28;20054;-69
2023/08/25 12:00:37;;;;;;;22.02;20.05;;;;;;;18.92;100.00;100755.91;4931667;28;20038;-69
2023/08/25 12:03:03;;;;;;;22.35;20.45;;;;;;;18.94;100.00;100757.56;4926157;28;20030;-68
2023/08/25 12:05:30;;;;;;;22.48;20.45;;;;;;;19.03;100.00;100743.84;4955092;28;20031;-69
2023/08/25 12:08:02;;;;;;;22.67;20.58;;;;;;;19.16;100.00;100735.28;4911502;28;20118;-69
2023/08/25 12:10:34;;;;;;;22.77;20.77;;;;;;;19.15;100.00;100736.19;4947928;28;20042;-69
2023/08/25 12:12:59;;;;;;;23.13;21.20;;;;;;;19.26;100.00;100733.03;4952706;28;20031;-70
2023/08/25 12:15:25;;;;;;;22.67;20.55;;;;;;;19.20;100.00;100726.22;4933671;29;20107;-70
2023/08/25 12:17:51;;;;;;;23.17;20.98;;;;;;;19.25;100.00;100721.56;4906111;29;20053;-69
2023/08/25 12:20:17;;;;;;;23.50;21.40;;;;;;;19.17;100.00;100723.72;4921489;29;20034;-71
2023/08/25 12:23:00;;;;;;;24.77;22.50;;;;;;;19.29;100.00;100715.13;4926090;28;20360;-71
2023/08/25 12:25:26;;;;;;;24.13;21.95;;;;;;;19.33;100.00;100722.00;4945706;28;20448;-70
2023/08/25 12:27:53;;;;;;;23.92;21.63;;;;;;;19.28;100.00;100725.81;4929876;29;20054;-71
2023/08/25 12:30:21;;;;;;;24.67;22.48;;;;;;;19.38;100.00;100725.31;4946391;28;20130;-71
2023/08/25 12:32:47;;;;;;;25.38;22.98;;;;;;;19.48;100.00;100717.72;4921934;28;20038;-71